Fence Lake, New Mexico
Current Conditions -  °F | °C
As of 4:54 PM on Thursday 25 Dec 2014 (Local Time) from KSJN Reporting Station
Light Snow Light Snow  
Wind Chill: 24°   Ceiling: 3300
Heat Index: 35°   Visibility: 7mi
Dew Point: 29°   Wind: 18mph
Humidity: 78%   Direction: 270°W
Pressure: 29.69"   Gusts: 25mph
Location:  34.65°N, 108.68°W
Report Text: KSJN 252354Z AUTO 27016G22KT 7SM -SN FEW025 BKN033 OVC046 02/M02 A2969 RMK AO2 PK WND 26029/2322 SNB23 SLP029 P0000 60000 T00171017 10100 20017 53022
Loading
Personal Weather Stations






























Interactive Weather Map New forecast layout! Learn more

10-Day Weather Forecast

Advertisements
Track Severe Weather on mobile